createdAt,value
2023-01-12T00:02:26.674Z,19.77
2023-01-12T00:04:57.609Z,13.50
2023-01-12T00:07:29.192Z,14.20
2023-01-12T00:09:58.732Z,13.27
2023-01-12T00:12:28.377Z,19.30
2023-01-12T00:14:57.556Z,15.93
2023-01-12T00:17:26.719Z,13.40
2023-01-12T00:19:57.403Z,16.20
2023-01-12T00:22:26.954Z,13.57
2023-01-12T00:24:56.353Z,14.17
2023-01-12T00:27:25.616Z,13.83
2023-01-12T00:29:55.316Z,11.90
2023-01-12T00:32:24.659Z,17.27
2023-01-12T00:34:53.644Z,15.40
2023-01-12T00:37:25.525Z,15.93
2023-01-12T00:40:01.793Z,13.03
2023-01-12T00:42:49.170Z,16.30
2023-01-12T00:45:25.055Z,13.63
2023-01-12T00:47:55.296Z,16.07
2023-01-12T00:50:24.926Z,14.67
2023-01-12T00:52:55.890Z,15.07
2023-01-12T00:55:25.370Z,14.17
2023-01-12T00:57:54.603Z,14.67
2023-01-12T01:00:23.899Z,15.13
2023-01-12T01:02:53.365Z,15.57
2023-01-12T01:05:22.643Z,18.03
2023-01-12T01:07:51.749Z,19.73
2023-01-12T01:10:22.420Z,16.17
2023-01-12T01:12:52.415Z,13.60
2023-01-12T01:15:22.163Z,14.53
2023-01-12T01:17:51.656Z,14.40
2023-01-12T01:20:20.883Z,13.47
2023-01-12T01:22:50.263Z,14.20
2023-01-12T01:25:19.657Z,16.23
2023-01-12T01:27:50.429Z,14.67
2023-01-12T01:30:19.865Z,18.23
2023-01-12T01:32:48.881Z,16.77
2023-01-12T01:35:18.329Z,13.53
2023-01-12T01:37:47.888Z,18.23
2023-01-12T01:40:17.134Z,17.50
2023-01-12T01:42:46.518Z,15.90
2023-01-12T01:45:17.531Z,13.30
2023-01-12T01:47:50.991Z,16.77
2023-01-12T01:50:25.036Z,13.90
2023-01-12T01:52:57.208Z,16.00
2023-01-12T01:55:30.018Z,17.57
2023-01-12T01:58:02.438Z,13.93
2023-01-12T02:00:33.058Z,20.37
2023-01-12T02:03:06.470Z,19.00
2023-01-12T02:05:36.445Z,14.90
2023-01-12T02:08:12.184Z,19.47
2023-01-12T02:10:42.019Z,17.77
2023-01-12T02:13:28.348Z,20.00
2023-01-12T02:16:21.139Z,20.83
2023-01-12T02:19:11.608Z,15.73
2023-01-12T02:22:23.279Z,13.53
2023-01-12T02:25:28.584Z,18.60
2023-01-12T02:28:18.861Z,17.03
2023-01-12T02:31:22.567Z,14.77
2023-01-12T02:34:05.241Z,13.60
2023-01-12T02:36:41.847Z,11.73
2023-01-12T02:39:18.001Z,14.97
2023-01-12T02:42:12.135Z,13.07
2023-01-12T02:44:46.850Z,15.13
2023-01-12T02:47:24.498Z,18.67
2023-01-12T02:50:00.590Z,16.10
2023-01-12T02:52:33.307Z,16.20
2023-01-12T02:55:04.370Z,17.07
2023-01-12T02:57:36.008Z,18.87
2023-01-12T03:00:08.159Z,20.67
2023-01-12T03:02:37.688Z,18.00
2023-01-12T03:05:09.949Z,13.27
2023-01-12T03:07:47.221Z,16.23
2023-01-12T03:10:26.524Z,15.47
2023-01-12T03:12:57.476Z,22.20
2023-01-12T03:15:29.829Z,15.53
2023-01-12T03:18:02.244Z,14.77
2023-01-12T03:20:36.556Z,17.57
2023-01-12T03:23:10.723Z,17.13
2023-01-12T03:25:43.443Z,23.53
2023-01-12T03:28:14.830Z,23.57
2023-01-12T03:30:47.945Z,21.27
2023-01-12T03:33:17.167Z,19.00
2023-01-12T03:35:55.505Z,20.97
2023-01-12T03:38:30.594Z,17.10
2023-01-12T03:41:05.483Z,20.17
2023-01-12T03:43:41.288Z,22.73
2023-01-12T03:46:16.991Z,27.37
2023-01-12T03:48:51.570Z,17.97
2023-01-12T03:51:26.500Z,22.03
2023-01-12T03:53:57.932Z,25.50
2023-01-12T03:56:30.649Z,29.33
2023-01-12T03:59:00.314Z,26.37
2023-01-12T04:01:29.819Z,20.20
2023-01-12T04:04:00.927Z,16.63
2023-01-12T04:06:31.192Z,24.27
2023-01-12T04:09:00.410Z,18.77
2023-01-12T04:12:01.705Z,19.03
2023-01-12T04:14:30.952Z,18.13
2023-01-12T04:17:01.600Z,19.53
2023-01-12T04:19:30.862Z,15.93
2023-01-12T04:22:17.836Z,15.40
2023-01-12T04:24:46.936Z,13.53
2023-01-12T04:27:15.828Z,14.53
2023-01-12T04:29:45.288Z,14.67
2023-01-12T04:32:14.853Z,15.17
2023-01-12T04:34:44.430Z,14.23
2023-01-12T04:37:14.917Z,16.80
2023-01-12T04:39:44.058Z,17.73
2023-01-12T04:42:26.816Z,18.53
2023-01-12T04:44:56.083Z,16.80
2023-01-12T04:47:25.484Z,16.00
2023-01-12T04:49:54.791Z,17.57
2023-01-12T04:52:25.792Z,16.13
2023-01-12T04:54:56.797Z,16.03
2023-01-12T04:57:26.203Z,16.97
2023-01-12T04:59:55.520Z,15.30
2023-01-12T05:02:25.144Z,14.70
2023-01-12T05:04:54.276Z,15.07
2023-01-12T05:07:23.584Z,18.93
2023-01-12T05:10:11.952Z,22.37
2023-01-12T05:12:42.230Z,20.90
2023-01-12T05:15:12.058Z,23.53
2023-01-12T05:17:41.435Z,21.50
2023-01-12T05:20:11.878Z,16.73
2023-01-12T05:22:41.130Z,14.13
2023-01-12T05:25:12.354Z,14.10
2023-01-12T05:27:41.292Z,16.97
2023-01-12T05:30:12.032Z,14.30
2023-01-12T05:32:43.118Z,9.63
2023-01-12T05:35:12.949Z,13.93
2023-01-12T05:37:42.256Z,15.47
2023-01-12T05:40:15.884Z,15.57
2023-01-12T05:43:02.965Z,20.30
2023-01-12T05:45:32.305Z,16.13
2023-01-12T05:48:02.607Z,13.63
2023-01-12T05:50:32.003Z,11.70
2023-01-12T05:53:10.595Z,13.00
2023-01-12T05:55:41.493Z,17.60
2023-01-12T05:58:10.648Z,16.00
2023-01-12T06:00:40.186Z,13.27
2023-01-12T06:03:09.529Z,15.80
2023-01-12T06:05:38.539Z,12.20
2023-01-12T06:08:08.070Z,15.27
2023-01-12T06:10:39.611Z,9.90
2023-01-12T06:13:28.328Z,12.97
2023-01-12T06:16:05.193Z,16.33
2023-01-12T06:18:36.394Z,14.50
2023-01-12T06:21:06.116Z,12.37
2023-01-12T06:23:36.052Z,18.20
2023-01-12T06:26:06.002Z,16.17
2023-01-12T06:28:37.505Z,14.13
2023-01-12T06:31:08.849Z,23.53
2023-01-12T06:33:38.425Z,16.57
2023-01-12T06:36:08.663Z,14.20
2023-01-12T06:38:38.928Z,16.87
2023-01-12T06:41:29.424Z,16.40
2023-01-12T06:44:00.591Z,14.73
2023-01-12T06:46:30.022Z,15.50
2023-01-12T06:48:59.253Z,11.67
2023-01-12T06:51:28.521Z,12.13
2023-01-12T06:53:57.924Z,13.90
2023-01-12T06:56:26.822Z,11.47
2023-01-12T06:58:56.083Z,16.17
2023-01-12T07:01:28.592Z,12.73
2023-01-12T07:03:58.178Z,12.83
2023-01-12T07:06:27.683Z,16.17
2023-01-12T07:08:56.825Z,14.60
2023-01-12T07:11:26.611Z,18.50
2023-01-12T07:13:57.026Z,14.83
2023-01-12T07:16:27.680Z,11.87
2023-01-12T07:18:57.056Z,17.17
2023-01-12T07:21:26.475Z,16.57
2023-01-12T07:23:55.770Z,16.83
2023-01-12T07:26:24.919Z,25.73
2023-01-12T07:28:54.209Z,15.50
2023-01-12T07:31:24.152Z,15.90
2023-01-12T07:33:55.403Z,17.93
2023-01-12T07:36:26.108Z,23.13
2023-01-12T07:38:55.948Z,17.77
2023-01-12T07:41:43.949Z,18.90
2023-01-12T07:44:15.126Z,13.73
2023-01-12T07:46:44.071Z,20.93
2023-01-12T07:49:14.646Z,17.13
2023-01-12T07:51:45.686Z,18.70
2023-01-12T07:54:15.347Z,14.67
2023-01-12T07:56:46.652Z,10.50
2023-01-12T07:59:16.229Z,17.83
2023-01-12T08:01:45.533Z,14.43
2023-01-12T08:04:16.312Z,13.80
2023-01-12T08:06:45.610Z,15.73
2023-01-12T08:09:14.779Z,15.37
2023-01-12T08:11:44.270Z,12.70
2023-01-12T08:14:23.231Z,13.50
2023-01-12T08:16:54.820Z,15.57
2023-01-12T08:19:29.113Z,14.47
2023-01-12T08:22:04.050Z,19.07
2023-01-12T08:24:38.507Z,14.07
2023-01-12T08:27:10.304Z,16.50
2023-01-12T08:29:44.444Z,13.67
2023-01-12T08:32:18.587Z,7.13
2023-01-12T08:34:52.241Z,6.47
2023-01-12T08:37:25.105Z,9.93
2023-01-12T08:39:54.996Z,5.57
2023-01-12T08:42:27.303Z,7.40
2023-01-12T08:44:56.842Z,9.73
2023-01-12T08:47:28.743Z,10.07
2023-01-12T08:50:03.379Z,15.70
2023-01-12T08:52:33.438Z,6.87
2023-01-12T08:55:02.762Z,12.80
2023-01-12T08:57:32.024Z,9.30
2023-01-12T09:00:01.662Z,5.53
2023-01-12T09:02:30.703Z,9.77
2023-01-12T09:05:06.245Z,9.40
2023-01-12T09:07:35.745Z,9.17
2023-01-12T09:10:07.302Z,10.37
2023-01-12T09:12:37.476Z,10.43
2023-01-12T09:15:07.620Z,8.33
2023-01-12T09:17:37.140Z,9.70
2023-01-12T09:20:09.815Z,9.27
2023-01-12T09:22:39.721Z,6.70
2023-01-12T09:25:08.984Z,8.83
2023-01-12T09:27:39.291Z,6.27
2023-01-12T09:30:09.365Z,11.73
2023-01-12T09:32:38.994Z,7.13
2023-01-12T09:35:11.513Z,8.57
2023-01-12T09:37:43.961Z,7.67
2023-01-12T09:40:16.803Z,2.73
2023-01-12T09:43:08.058Z,8.80
2023-01-12T09:45:54.944Z,4.63
2023-01-12T09:48:25.596Z,11.30
2023-01-12T09:51:01.481Z,6.00
2023-01-12T09:53:34.991Z,8.20
2023-01-12T09:56:16.783Z,10.00
2023-01-12T09:59:25.605Z,5.10
2023-01-12T10:01:55.885Z,2.93
2023-01-12T10:04:26.453Z,3.47
2023-01-12T10:06:57.763Z,6.17
2023-01-12T10:09:27.560Z,5.10
2023-01-12T10:12:06.096Z,4.23
2023-01-12T10:15:13.176Z,3.27
2023-01-12T10:17:51.530Z,7.40
2023-01-12T10:20:29.267Z,4.27
2023-01-12T10:23:10.526Z,4.97
2023-01-12T10:25:43.323Z,4.33
2023-01-12T10:28:20.338Z,6.87
2023-01-12T10:30:50.150Z,4.33
2023-01-12T10:33:21.951Z,6.57
2023-01-12T10:35:55.284Z,5.20
2023-01-12T10:38:29.461Z,3.33
2023-01-12T10:41:14.902Z,3.70
2023-01-12T10:43:45.346Z,5.97
2023-01-12T10:46:18.226Z,13.83
2023-01-12T10:48:49.072Z,6.80
2023-01-12T10:51:27.818Z,8.80
2023-01-12T10:54:02.424Z,5.63
2023-01-12T10:56:36.717Z,8.33
2023-01-12T10:59:09.035Z,4.90
2023-01-12T11:01:45.881Z,4.77
2023-01-12T11:04:17.118Z,6.07
2023-01-12T11:06:59.646Z,12.80
2023-01-12T11:09:32.495Z,6.23
2023-01-12T11:12:03.632Z,10.07
2023-01-12T11:14:36.197Z,2.73
2023-01-12T11:17:23.207Z,7.03
2023-01-12T11:19:53.354Z,4.93
2023-01-12T11:22:27.730Z,4.77
2023-01-12T11:25:03.280Z,7.60
2023-01-12T11:27:36.100Z,4.47
2023-01-12T11:30:16.905Z,4.83
2023-01-12T11:32:55.061Z,5.70
2023-01-12T11:35:32.318Z,5.53
2023-01-12T11:38:05.781Z,3.97
2023-01-12T11:40:38.027Z,6.33
2023-01-12T11:43:35.345Z,4.17
2023-01-12T11:46:09.374Z,4.03
2023-01-12T11:48:48.128Z,4.75
2023-01-12T11:51:18.463Z,4.82
2023-01-12T11:53:48.399Z,6.78
2023-01-12T11:56:30.873Z,2.40
2023-01-12T11:59:07.866Z,4.10
2023-01-12T12:01:45.614Z,5.18
2023-01-12T12:04:24.187Z,6.38
2023-01-12T12:07:06.870Z,4.68
2023-01-12T12:09:44.656Z,6.82
2023-01-12T12:12:20.825Z,8.50
2023-01-12T12:15:06.379Z,5.97
2023-01-12T12:17:41.840Z,6.72
2023-01-12T12:20:18.927Z,3.75
2023-01-12T12:23:02.148Z,4.88
2023-01-12T12:25:39.404Z,5.93
2023-01-12T12:28:34.812Z,8.27
2023-01-12T12:31:17.279Z,3.20
2023-01-12T12:34:00.620Z,6.72
2023-01-12T12:36:37.311Z,4.00
2023-01-12T12:39:38.647Z,6.55
2023-01-12T12:42:38.393Z,5.93
2023-01-12T12:45:19.273Z,4.47
2023-01-12T12:47:59.327Z,3.45
2023-01-12T12:50:35.018Z,2.90
2023-01-12T12:53:24.392Z,6.95
2023-01-12T12:55:54.728Z,6.82
2023-01-12T12:58:41.746Z,6.05
2023-01-12T13:01:56.134Z,5.10
2023-01-12T13:05:04.517Z,4.45
2023-01-12T13:07:38.445Z,6.43
2023-01-12T13:10:32.868Z,4.50
2023-01-12T13:13:06.655Z,3.88
2023-01-12T13:15:38.318Z,3.78
2023-01-12T13:18:45.283Z,5.27
2023-01-12T13:21:32.591Z,5.53
2023-01-12T13:24:23.961Z,2.73
2023-01-12T13:26:54.244Z,7.13
2023-01-12T13:29:48.144Z,6.40
2023-01-12T13:32:39.647Z,5.50
2023-01-12T13:35:30.043Z,4.67
2023-01-12T13:38:05.173Z,4.43
2023-01-12T13:40:34.832Z,6.10
2023-01-12T13:43:18.210Z,6.63
2023-01-12T13:45:57.972Z,4.20
2023-01-12T13:48:28.117Z,9.70
2023-01-12T13:51:04.176Z,7.10
2023-01-12T13:53:34.274Z,3.47
2023-01-12T13:56:06.043Z,14.17
2023-01-12T13:58:41.338Z,13.17
2023-01-12T14:01:26.666Z,9.67
2023-01-12T14:04:18.065Z,17.67
2023-01-12T14:06:57.306Z,14.87
2023-01-12T14:09:36.910Z,10.47
2023-01-12T14:12:26.540Z,15.30
2023-01-12T14:15:45.024Z,11.97
2023-01-12T14:18:16.489Z,10.20
2023-01-12T14:20:47.159Z,13.37
2023-01-12T14:23:20.838Z,7.10
2023-01-12T14:26:08.708Z,7.30
2023-01-12T14:28:38.255Z,4.73
2023-01-12T14:31:10.444Z,7.83
2023-01-12T14:33:41.368Z,11.10
2023-01-12T14:36:17.947Z,14.13
2023-01-12T14:38:48.467Z,15.60
2023-01-12T14:41:38.056Z,16.50
2023-01-12T14:44:25.133Z,16.40
2023-01-12T14:46:55.609Z,20.83
2023-01-12T14:49:29.655Z,19.27
2023-01-12T14:52:01.073Z,18.67
2023-01-12T14:54:33.474Z,19.40
2023-01-12T14:57:05.167Z,22.40
2023-01-12T14:59:36.229Z,26.40
2023-01-12T15:02:31.356Z,15.83
2023-01-12T15:05:03.482Z,10.63
2023-01-12T15:07:35.484Z,13.37
2023-01-12T15:10:40.068Z,14.37
2023-01-12T15:13:27.663Z,8.30
2023-01-12T15:16:15.340Z,8.40
2023-01-12T15:19:02.042Z,11.80
2023-01-12T15:21:49.802Z,11.07
2023-01-12T15:24:41.794Z,10.47
2023-01-12T15:27:13.827Z,8.50
2023-01-12T15:29:43.277Z,6.63
2023-01-12T15:32:19.858Z,11.97
2023-01-12T15:34:49.584Z,11.07
2023-01-12T15:37:21.161Z,7.53
2023-01-12T15:39:50.363Z,8.90
2023-01-12T15:42:23.114Z,9.03
2023-01-12T15:44:53.893Z,11.97
2023-01-12T15:47:23.487Z,9.77
2023-01-12T15:49:53.721Z,12.20
2023-01-12T15:52:25.353Z,9.33
2023-01-12T15:54:58.036Z,13.90
2023-01-12T15:57:28.862Z,12.13
2023-01-12T15:59:57.980Z,11.37
2023-01-12T16:02:33.181Z,10.60
2023-01-12T16:05:03.348Z,10.33
2023-01-12T16:07:32.410Z,7.63
2023-01-12T16:10:02.402Z,12.53
2023-01-12T16:12:32.895Z,8.80
2023-01-12T16:15:02.820Z,5.80
2023-01-12T16:17:32.387Z,9.87
2023-01-12T16:20:02.217Z,6.53
2023-01-12T16:22:33.881Z,7.07
2023-01-12T16:25:04.389Z,7.60
2023-01-12T16:27:36.594Z,8.27
2023-01-12T16:30:07.002Z,7.00
2023-01-12T16:32:36.681Z,7.00
2023-01-12T16:35:06.253Z,7.87
2023-01-12T16:37:35.898Z,8.10
2023-01-12T16:40:05.143Z,7.03
2023-01-12T16:42:36.053Z,3.80
2023-01-12T16:45:06.497Z,4.73
2023-01-12T16:47:35.750Z,6.07
2023-01-12T16:50:05.402Z,6.43
2023-01-12T16:52:34.851Z,6.13
2023-01-12T16:55:05.904Z,13.17
2023-01-12T16:57:37.740Z,9.10
2023-01-12T17:00:07.883Z,6.00
2023-01-12T17:02:38.074Z,3.47
2023-01-12T17:05:10.966Z,7.87
2023-01-12T17:07:40.792Z,11.43
2023-01-12T17:10:10.772Z,8.87
2023-01-12T17:12:54.323Z,7.10
2023-01-12T17:15:28.798Z,9.67
2023-01-12T17:17:58.738Z,5.83
2023-01-12T17:20:30.846Z,4.90
2023-01-12T17:23:01.099Z,6.27
2023-01-12T17:25:30.567Z,7.93
2023-01-12T17:28:01.655Z,5.00
2023-01-12T17:30:31.369Z,6.67
2023-01-12T17:33:01.381Z,10.60
2023-01-12T17:35:31.075Z,7.93
2023-01-12T17:38:01.361Z,5.40
2023-01-12T17:40:32.240Z,6.43
2023-01-12T17:43:08.270Z,8.90
2023-01-12T17:45:43.313Z,6.97
2023-01-12T17:48:13.676Z,9.90
2023-01-12T17:50:43.407Z,8.30
2023-01-12T17:53:14.141Z,7.37
2023-01-12T17:55:48.673Z,9.07
2023-01-12T17:58:20.449Z,12.03
2023-01-12T18:00:50.196Z,9.07
2023-01-12T18:03:21.868Z,9.17
2023-01-12T18:06:02.786Z,6.83
2023-01-12T18:08:36.362Z,9.73
2023-01-12T18:11:06.398Z,5.70
2023-01-12T18:13:39.456Z,5.63
2023-01-12T18:16:13.079Z,5.23
2023-01-12T18:18:42.633Z,16.87
2023-01-12T18:21:14.601Z,18.50
2023-01-12T18:23:45.076Z,16.33
2023-01-12T18:26:16.364Z,12.43
2023-01-12T18:28:47.966Z,9.10
2023-01-12T18:31:18.863Z,7.13
2023-01-12T18:33:48.691Z,9.57
2023-01-12T18:36:20.859Z,8.10
2023-01-12T18:38:51.659Z,6.67
2023-01-12T18:41:39.077Z,8.00
2023-01-12T18:44:09.907Z,6.30
2023-01-12T18:47:02.992Z,4.47
2023-01-12T18:49:34.645Z,7.83
2023-01-12T18:52:21.517Z,4.57
2023-01-12T18:54:53.675Z,6.10
2023-01-12T18:57:24.538Z,5.70
2023-01-12T18:59:57.375Z,11.23
2023-01-12T19:02:27.239Z,6.30
2023-01-12T19:05:19.357Z,5.70
2023-01-12T19:08:25.935Z,5.27
2023-01-12T19:10:54.313Z,4.53
2023-01-12T19:13:41.272Z,10.37
2023-01-12T19:16:32.804Z,6.77
2023-01-12T19:19:02.432Z,5.73
2023-01-12T19:21:48.937Z,6.57
2023-01-12T19:24:35.552Z,7.97
2023-01-12T19:27:22.491Z,6.77
2023-01-12T19:29:52.274Z,6.00
2023-01-12T19:32:23.170Z,6.23
2023-01-12T19:34:56.576Z,5.27
2023-01-12T19:37:31.924Z,5.37
2023-01-12T19:40:04.239Z,6.27
2023-01-12T19:42:52.025Z,6.33
2023-01-12T19:45:21.645Z,6.47
2023-01-12T19:47:53.128Z,7.67
2023-01-12T19:50:22.545Z,6.57
2023-01-12T19:52:52.695Z,6.30
2023-01-12T19:55:23.249Z,6.83
2023-01-12T19:57:54.474Z,5.57
2023-01-12T20:00:25.057Z,9.00
2023-01-12T20:02:55.995Z,7.60
2023-01-12T20:05:25.912Z,7.07
2023-01-12T20:07:56.218Z,5.00
2023-01-12T20:10:26.089Z,6.50
2023-01-12T20:12:55.764Z,5.93
2023-01-12T20:15:25.796Z,7.53
2023-01-12T20:18:00.547Z,4.63
2023-01-12T20:20:59.086Z,5.47
2023-01-12T20:23:47.022Z,5.80
2023-01-12T20:26:38.135Z,4.07
2023-01-12T20:29:25.628Z,5.10
2023-01-12T20:32:26.086Z,6.17
2023-01-12T20:35:09.068Z,6.33
2023-01-12T20:37:59.244Z,5.07
2023-01-12T20:41:17.480Z,8.60
2023-01-12T20:43:51.378Z,3.47
2023-01-12T20:46:31.552Z,6.83
2023-01-12T20:52:04.204Z,7.43
2023-01-12T20:54:41.685Z,12.43
2023-01-12T20:57:27.217Z,10.90
2023-01-12T21:00:20.151Z,6.30
2023-01-12T21:03:17.190Z,4.97
2023-01-12T21:06:09.285Z,6.33
2023-01-12T21:11:56.408Z,4.93
2023-01-12T21:14:39.403Z,5.23
2023-01-12T21:17:11.851Z,8.63
2023-01-12T21:20:04.939Z,6.57
2023-01-12T21:22:51.471Z,6.60
2023-01-12T21:28:35.673Z,8.63
2023-01-12T21:31:11.987Z,9.03
2023-01-12T21:33:53.353Z,7.37
2023-01-12T21:36:58.817Z,7.33
2023-01-12T21:43:45.911Z,6.47
2023-01-12T21:47:13.979Z,6.33
2023-01-12T21:49:50.587Z,4.20
2023-01-12T22:01:57.731Z,5.57
2023-01-12T22:13:51.881Z,9.60
2023-01-12T22:19:50.987Z,5.90
2023-01-12T22:28:20.760Z,8.37
2023-01-12T22:30:50.276Z,5.83
2023-01-12T22:33:21.684Z,7.03
2023-01-12T22:35:55.764Z,8.47
2023-01-12T22:38:25.166Z,5.83
2023-01-12T22:40:54.432Z,5.57
2023-01-12T22:43:30.150Z,4.13
2023-01-12T22:46:00.254Z,4.27
2023-01-12T22:48:31.865Z,11.80
2023-01-12T22:51:03.542Z,7.97
2023-01-12T22:53:33.262Z,6.03
2023-01-12T22:56:03.647Z,5.20
2023-01-12T22:58:33.460Z,3.93
2023-01-12T23:01:06.802Z,4.50
2023-01-12T23:03:36.927Z,3.80
2023-01-12T23:06:08.760Z,4.40
2023-01-12T23:08:38.285Z,5.17
2023-01-12T23:11:09.715Z,7.07
2023-01-12T23:13:39.166Z,4.23
2023-01-12T23:16:10.408Z,3.80
2023-01-12T23:18:40.434Z,3.10
2023-01-12T23:21:15.922Z,7.63
2023-01-12T23:23:49.228Z,4.10
2023-01-12T23:26:20.485Z,4.17
2023-01-12T23:28:51.831Z,5.00
2023-01-12T23:31:22.615Z,2.23
2023-01-12T23:33:53.950Z,4.37
2023-01-12T23:36:25.938Z,4.27
2023-01-12T23:38:55.629Z,2.83
2023-01-12T23:41:26.972Z,2.33
2023-01-12T23:43:59.645Z,6.13
2023-01-12T23:46:29.661Z,5.27
2023-01-12T23:48:59.547Z,6.50
2023-01-12T23:51:31.223Z,4.63
2023-01-12T23:54:02.649Z,8.53
2023-01-12T23:56:34.434Z,4.83
2023-01-12T23:59:04.113Z,5.40
